Time;durP1;ratioP1;P1;durP2;ratioP2;P2;SDS_P1;SDS_P2;PMS_P1;PMS_P2;Temp;Humidity;BMP_temperature;BMP_pressure;BME280_temperature;BME280_humidity;BME280_pressure;Samples;Min_cycle;Max_cycle;Signal;HPM_P1;HPM_P2
2023/03/17 00:03:42;;;;;;;9.53;4.97;;;4.20;99.90;;;;;;7928763;28;20193;-89
2023/03/17 00:07:28;;;;;;;10.07;4.80;;;4.20;99.90;;;;;;7909446;28;20188;-90
2023/03/17 00:11:15;;;;;;;12.97;5.10;;;4.20;98.80;;;;;;7899752;28;20195;-90
2023/03/17 00:15:01;;;;;;;9.60;4.83;;;4.10;99.90;;;;;;7880494;28;20208;-90
2023/03/17 00:18:48;;;;;;;11.53;5.17;;;4.10;99.90;;;;;;7890087;28;20204;-89
2023/03/17 00:22:34;;;;;;;11.57;5.50;;;4.10;99.30;;;;;;7900334;28;20214;-90
2023/03/17 00:26:21;;;;;;;9.80;5.10;;;4.10;99.60;;;;;;7881390;28;20205;-90
2023/03/17 00:30:08;;;;;;;8.70;4.80;;;4.20;98.70;;;;;;7885388;28;20185;-90
2023/03/17 00:33:55;;;;;;;9.57;5.30;;;4.10;99.00;;;;;;7869977;28;20426;-90
2023/03/17 00:37:40;;;;;;;8.40;4.63;;;4.10;98.50;;;;;;7886178;28;20235;-90
2023/03/17 00:41:26;;;;;;;9.33;5.37;;;4.10;98.90;;;;;;7892321;28;20176;-89
2023/03/17 00:45:13;;;;;;;13.63;5.17;;;4.00;99.10;;;;;;7892273;28;20204;-90
2023/03/17 00:48:58;;;;;;;9.13;5.57;;;3.90;98.70;;;;;;7894865;28;20185;-89
2023/03/17 00:52:45;;;;;;;13.87;5.63;;;4.10;98.80;;;;;;7883898;28;20213;-90
2023/03/17 00:56:30;;;;;;;10.63;5.23;;;3.90;98.50;;;;;;7899067;28;20201;-89
2023/03/17 01:00:24;;;;;;;11.63;5.40;;;3.90;98.80;;;;;;7890050;28;20212;-90
2023/03/17 01:04:09;;;;;;;11.67;5.20;;;3.90;99.50;;;;;;7887013;28;20211;-91
2023/03/17 01:07:57;;;;;;;10.63;4.93;;;3.90;98.80;;;;;;7874883;28;20208;-90
2023/03/17 01:11:43;;;;;;;9.23;4.73;;;3.90;98.40;;;;;;7901566;28;20642;-89
2023/03/17 01:15:30;;;;;;;8.50;4.30;;;3.90;98.50;;;;;;7896979;28;20615;-90
2023/03/17 01:19:16;;;;;;;10.57;5.33;;;3.90;97.80;;;;;;7898894;28;20240;-89
2023/03/17 01:23:03;;;;;;;9.23;4.73;;;3.80;98.70;;;;;;7886229;28;20727;-90
2023/03/17 01:26:48;;;;;;;10.13;4.73;;;3.90;97.30;;;;;;7895694;28;20606;-90
2023/03/17 01:30:38;;;;;;;8.67;4.57;;;3.80;97.20;;;;;;7879850;28;20192;-90
2023/03/17 01:34:24;;;;;;;10.73;4.73;;;3.80;97.30;;;;;;7891558;28;20208;-91
2023/03/17 01:38:10;;;;;;;10.77;5.13;;;3.80;97.30;;;;;;7868744;28;20213;-90
2023/03/17 01:42:00;;;;;;;11.73;4.70;;;3.80;97.20;;;;;;7882152;28;20323;-91
2023/03/17 01:46:13;;;;;;;11.80;4.53;;;3.80;97.00;;;;;;7890367;28;20197;-90
2023/03/17 01:50:07;;;;;;;8.17;4.10;;;3.70;97.30;;;;;;7882495;28;20278;-91
2023/03/17 01:53:54;;;;;;;10.23;4.63;;;3.70;96.70;;;;;;7895516;28;20200;-89
2023/03/17 01:57:43;;;;;;;8.47;4.17;;;3.70;96.10;;;;;;7873139;28;20852;-91
2023/03/17 02:01:36;;;;;;;10.77;4.70;;;3.70;96.30;;;;;;7897143;28;20193;-90
2023/03/17 02:05:24;;;;;;;9.23;4.50;;;3.80;96.30;;;;;;7898167;28;20200;-90
2023/03/17 02:09:11;;;;;;;7.33;4.37;;;3.60;96.80;;;;;;7888850;28;20185;-90
2023/03/17 02:13:01;;;;;;;11.37;4.20;;;3.70;96.50;;;;;;7879166;28;20193;-90
2023/03/17 02:16:47;;;;;;;11.73;4.87;;;3.70;96.50;;;;;;7884219;28;20209;-91
2023/03/17 02:20:33;;;;;;;10.30;4.43;;;3.70;96.70;;;;;;7874323;28;20227;-91
2023/03/17 02:24:31;;;;;;;8.97;4.30;;;3.80;97.60;;;;;;7880499;28;20688;-90
2023/03/17 02:28:24;;;;;;;8.27;4.20;;;3.70;96.90;;;;;;7892381;28;20249;-90
2023/03/17 02:32:11;;;;;;;10.00;4.43;;;3.70;96.80;;;;;;7877389;28;20208;-90
2023/03/17 02:35:57;;;;;;;10.27;3.80;;;3.70;96.70;;;;;;7895434;28;20683;-90
2023/03/17 02:39:42;;;;;;;10.73;4.17;;;3.70;96.50;;;;;;7894190;28;20208;-91
2023/03/17 02:43:28;;;;;;;7.20;4.10;;;3.70;96.30;;;;;;7901609;28;20196;-90
2023/03/17 02:47:14;;;;;;;7.07;4.00;;;3.60;96.80;;;;;;7896132;28;20188;-90
2023/03/17 02:51:00;;;;;;;10.23;4.40;;;3.60;96.70;;;;;;7898866;28;20191;-90
2023/03/17 02:54:45;;;;;;;10.77;4.10;;;3.60;96.80;;;;;;7899997;28;20221;-91
2023/03/17 02:58:31;;;;;;;9.97;4.30;;;3.60;96.20;;;;;;7901734;28;20223;-90
2023/03/17 03:02:17;;;;;;;12.63;4.73;;;3.60;96.20;;;;;;7894437;28;20639;-90
2023/03/17 03:06:03;;;;;;;8.53;4.50;;;3.60;96.30;;;;;;7896649;28;20207;-90
2023/03/17 03:09:48;;;;;;;8.23;4.70;;;3.60;96.50;;;;;;7882684;28;20193;-90
2023/03/17 03:13:35;;;;;;;11.30;4.43;;;3.70;96.90;;;;;;7898019;28;20304;-90
2023/03/17 03:17:21;;;;;;;10.97;4.80;;;3.80;97.10;;;;;;7877653;28;20243;-91
2023/03/17 03:21:06;;;;;;;8.20;4.40;;;4.00;97.10;;;;;;7905101;28;20276;-90
2023/03/17 03:24:52;;;;;;;8.43;4.23;;;3.60;96.70;;;;;;7882085;28;20205;-92
2023/03/17 03:28:38;;;;;;;11.67;4.90;;;3.60;97.00;;;;;;7881797;28;20181;-91
2023/03/17 03:32:23;;;;;;;10.10;4.93;;;3.60;96.90;;;;;;7879145;28;20181;-92
2023/03/17 03:36:10;;;;;;;11.60;4.57;;;3.50;97.10;;;;;;7888766;28;20224;-91
2023/03/17 03:39:55;;;;;;;9.57;4.87;;;3.50;97.10;;;;;;7881791;28;20204;-91
2023/03/17 03:43:41;;;;;;;9.97;5.03;;;3.60;97.40;;;;;;7902095;28;20204;-92
2023/03/17 03:47:27;;;;;;;11.40;4.83;;;3.50;97.30;;;;;;7888678;28;20221;-91
2023/03/17 03:51:12;;;;;;;12.30;5.17;;;3.50;97.20;;;;;;7893818;28;20259;-91
2023/03/17 03:54:58;;;;;;;13.07;4.87;;;3.40;97.60;;;;;;7908981;28;20242;-90
2023/03/17 03:58:44;;;;;;;8.77;4.50;;;3.40;97.80;;;;;;7914585;28;20216;-91
2023/03/17 04:02:30;;;;;;;10.23;4.30;;;3.40;97.60;;;;;;7900843;28;20251;-90
2023/03/17 04:06:16;;;;;;;10.23;5.40;;;3.50;97.70;;;;;;7900717;28;20608;-90
2023/03/17 04:10:02;;;;;;;7.83;4.47;;;3.40;98.70;;;;;;7875996;28;20194;-90
2023/03/17 04:13:48;;;;;;;8.90;5.10;;;3.30;98.20;;;;;;7869372;28;20204;-91
2023/03/17 04:17:34;;;;;;;8.53;4.87;;;3.30;98.70;;;;;;7869690;28;20201;-92
2023/03/17 04:21:20;;;;;;;8.87;4.83;;;3.30;99.20;;;;;;7870151;28;20177;-91
2023/03/17 04:25:06;;;;;;;13.23;5.10;;;3.20;99.00;;;;;;7874486;28;20212;-92
2023/03/17 04:28:53;;;;;;;9.20;4.90;;;3.20;99.60;;;;;;7901204;28;20180;-90
2023/03/17 04:32:39;;;;;;;10.67;5.50;;;3.20;99.50;;;;;;7901609;28;20177;-91
2023/03/17 04:36:24;;;;;;;13.87;5.80;;;3.20;99.50;;;;;;7899550;28;20227;-91
2023/03/17 04:40:20;;;;;;;12.13;5.50;;;3.20;99.50;;;;;;7900635;28;20180;-91
2023/03/17 04:44:06;;;;;;;9.10;5.30;;;3.10;99.60;;;;;;7900240;28;20792;-90
2023/03/17 04:47:52;;;;;;;11.60;4.70;;;3.10;99.80;;;;;;7901064;28;20176;-89
2023/03/17 04:51:38;;;;;;;12.80;5.50;;;3.10;99.90;;;;;;7901503;28;20195;-89
2023/03/17 04:55:23;;;;;;;8.87;5.03;;;3.00;99.90;;;;;;7901427;28;20673;-90
2023/03/17 04:59:10;;;;;;;10.73;5.17;;;3.10;99.90;;;;;;7902205;28;20216;-91
2023/03/17 05:02:56;;;;;;;8.43;4.80;;;3.10;99.90;;;;;;7904222;28;20180;-90
2023/03/17 05:06:42;;;;;;;9.87;5.33;;;3.00;99.90;;;;;;7913848;28;20198;-89
2023/03/17 05:10:28;;;;;;;9.93;5.13;;;3.00;99.90;;;;;;7924408;28;20177;-91
2023/03/17 05:14:57;;;;;;;8.43;5.00;;;3.00;99.90;;;;;;7887119;28;20213;-90
2023/03/17 05:18:43;;;;;;;10.40;5.33;;;3.00;99.90;;;;;;7868979;28;20216;-90
2023/03/17 05:22:29;;;;;;;8.80;4.97;;;3.00;99.90;;;;;;7893103;28;20184;-90
2023/03/17 05:26:15;;;;;;;10.97;5.57;;;2.90;99.90;;;;;;7892524;28;20275;-90
2023/03/17 05:30:02;;;;;;;11.03;5.30;;;2.90;99.90;;;;;;7872172;28;20199;-90
2023/03/17 05:33:48;;;;;;;9.67;5.30;;;2.90;99.90;;;;;;7899890;28;20658;-91
2023/03/17 05:37:36;;;;;;;10.17;5.10;;;2.90;99.90;;;;;;7891083;28;20629;-91
2023/03/17 05:41:21;;;;;;;8.40;5.00;;;2.90;99.90;;;;;;7899818;28;20176;-90
2023/03/17 05:45:23;;;;;;;8.27;4.40;;;2.80;99.90;;;;;;7912822;28;20246;-90
2023/03/17 05:49:09;;;;;;;9.80;5.17;;;2.90;99.90;;;;;;7891212;28;20213;-90
2023/03/17 05:52:54;;;;;;;10.07;5.13;;;2.90;99.90;;;;;;7877928;28;20199;-85
2023/03/17 05:56:41;;;;;;;9.80;4.70;;;2.90;99.90;;;;;;7910879;28;20208;-93
2023/03/17 06:00:27;;;;;;;8.00;4.73;;;2.90;99.90;;;;;;7893008;28;20254;-89
2023/03/17 06:04:13;;;;;;;10.43;4.93;;;2.90;99.90;;;;;;7879985;28;20296;-89
2023/03/17 06:07:59;;;;;;;13.97;5.13;;;2.90;99.90;;;;;;7903959;28;20180;-88
2023/03/17 06:11:45;;;;;;;10.73;4.57;;;2.90;99.90;;;;;;7902579;28;20185;-90
2023/03/17 06:15:32;;;;;;;11.67;5.13;;;2.90;99.90;;;;;;7905124;28;20296;-88
2023/03/17 06:19:17;;;;;;;8.70;4.60;;;2.90;99.90;;;;;;7903056;28;20212;-89
2023/03/17 06:23:03;;;;;;;6.87;4.50;;;2.90;99.90;;;;;;7885427;28;20209;-88
2023/03/17 06:26:49;;;;;;;8.97;4.60;;;2.80;99.90;;;;;;7885415;28;20363;-89
2023/03/17 06:30:36;;;;;;;9.27;4.63;;;2.70;99.90;;;;;;7904100;28;20666;-89
2023/03/17 06:34:23;;;;;;;8.43;4.40;;;2.80;99.90;;;;;;7891950;28;20209;-89
2023/03/17 06:38:08;;;;;;;10.67;4.47;;;2.70;99.90;;;;;;7904167;28;20227;-90
2023/03/17 06:41:54;;;;;;;15.90;4.87;;;2.70;99.90;;;;;;7893740;28;20193;-88
2023/03/17 06:45:40;;;;;;;10.50;5.23;;;2.80;99.90;;;;;;7892750;28;20205;-89
2023/03/17 06:49:26;;;;;;;10.23;4.07;;;2.90;99.90;;;;;;7899917;28;20220;-89
2023/03/17 06:53:12;;;;;;;10.23;4.97;;;2.90;99.90;;;;;;7882326;28;20239;-90
2023/03/17 06:56:58;;;;;;;61.67;7.47;;;3.00;99.90;;;;;;7889641;28;20752;-89
2023/03/17 07:00:44;;;;;;;11.10;4.67;;;3.10;99.90;;;;;;7875922;28;20542;-90
2023/03/17 07:04:30;;;;;;;9.87;4.53;;;3.30;99.90;;;;;;7900064;28;20204;-89
2023/03/17 07:08:16;;;;;;;9.50;4.67;;;3.20;99.90;;;;;;7901012;28;20189;-89
2023/03/17 07:12:03;;;;;;;11.57;4.57;;;3.40;99.90;;;;;;7897840;28;20219;-89
2023/03/17 07:15:49;;;;;;;10.57;4.27;;;3.40;99.90;;;;;;7897527;28;20216;-89
2023/03/17 07:19:35;;;;;;;11.77;4.10;;;3.40;99.90;;;;;;7884166;28;20262;-90
2023/03/17 07:23:21;;;;;;;8.13;4.53;;;3.50;99.90;;;;;;7885470;28;20229;-90
2023/03/17 07:27:07;;;;;;;6.57;3.47;;;3.60;99.90;;;;;;7884238;28;20302;-89
2023/03/17 07:30:53;;;;;;;9.57;4.57;;;3.70;99.90;;;;;;7888104;28;20192;-89
2023/03/17 07:34:39;;;;;;;8.73;4.27;;;3.80;99.90;;;;;;7886045;28;20209;-89
2023/03/17 07:38:25;;;;;;;6.30;3.90;;;4.00;99.90;;;;;;7890386;28;20231;-89
2023/03/17 07:42:14;;;;;;;8.20;3.57;;;4.20;99.90;;;;;;7881873;28;20181;-90
2023/03/17 07:46:00;;;;;;;10.27;4.20;;;4.30;99.90;;;;;;7889699;28;20693;-87
2023/03/17 07:49:46;;;;;;;7.83;3.93;;;4.40;99.90;;;;;;7898498;28;20277;-86
2023/03/17 07:53:31;;;;;;;10.53;4.33;;;4.40;99.90;;;;;;7903321;28;20224;-86
2023/03/17 07:57:17;;;;;;;8.10;4.30;;;4.30;99.90;;;;;;7893704;28;20243;-85
2023/03/17 08:01:03;;;;;;;7.23;4.27;;;4.20;99.90;;;;;;7884123;28;20185;-87
2023/03/17 08:04:49;;;;;;;8.37;4.17;;;4.20;99.90;;;;;;7893118;28;20590;-86
2023/03/17 08:08:35;;;;;;;6.00;3.80;;;4.20;99.90;;;;;;7893326;28;20188;-86
2023/03/17 08:12:21;;;;;;;7.23;4.00;;;4.20;99.90;;;;;;7895984;28;20201;-86
2023/03/17 08:16:07;;;;;;;5.77;3.33;;;4.20;99.90;;;;;;7902173;28;20382;-85
2023/03/17 08:19:53;;;;;;;7.43;3.90;;;4.20;99.90;;;;;;7892745;28;20697;-85
2023/03/17 08:23:39;;;;;;;8.90;3.90;;;4.20;99.90;;;;;;7899262;28;20283;-86
2023/03/17 08:27:25;;;;;;;11.67;4.27;;;4.30;99.90;;;;;;7897228;28;20184;-86
2023/03/17 08:31:13;;;;;;;9.77;4.27;;;4.50;99.90;;;;;;7890946;28;20187;-86
2023/03/17 08:34:59;;;;;;;10.83;4.30;;;4.80;99.90;;;;;;7899569;28;20204;-86
2023/03/17 08:38:45;;;;;;;6.23;3.87;;;5.00;99.90;;;;;;7900256;28;20970;-87
2023/03/17 08:42:31;;;;;;;6.63;4.00;;;4.90;99.90;;;;;;7890664;28;20184;-89
2023/03/17 08:46:20;;;;;;;7.20;3.73;;;4.90;99.90;;;;;;7895196;28;20282;-86
2023/03/17 08:50:13;;;;;;;8.87;3.83;;;5.10;99.80;;;;;;7891614;28;20669;-85
2023/03/17 08:53:59;;;;;;;7.13;3.90;;;5.10;98.70;;;;;;7898258;28;20212;-87
2023/03/17 08:57:45;;;;;;;7.63;3.63;;;5.20;97.50;;;;;;7898831;28;20200;-86
2023/03/17 09:01:31;;;;;;;9.63;4.40;;;5.20;96.80;;;;;;7892064;28;20185;-87
2023/03/17 09:05:18;;;;;;;5.73;3.40;;;5.10;97.60;;;;;;7896837;28;20701;-86
2023/03/17 09:09:04;;;;;;;8.93;4.53;;;5.30;97.20;;;;;;7902572;28;20192;-86
2023/03/17 09:12:50;;;;;;;8.40;3.53;;;5.30;98.10;;;;;;7902393;28;20185;-86
2023/03/17 09:16:36;;;;;;;6.63;3.93;;;5.30;96.90;;;;;;7902014;28;20188;-86
2023/03/17 09:20:22;;;;;;;8.23;3.70;;;5.50;97.30;;;;;;7894735;28;20795;-86
2023/03/17 09:24:07;;;;;;;6.00;3.50;;;5.50;96.70;;;;;;7899305;28;20258;-86
2023/03/17 09:27:53;;;;;;;7.27;3.77;;;5.70;97.60;;;;;;7897640;28;20581;-86
2023/03/17 09:31:40;;;;;;;6.13;3.67;;;5.90;96.00;;;;;;7882137;28;20186;-87
2023/03/17 09:35:27;;;;;;;5.57;3.30;;;6.10;96.00;;;;;;7899340;28;20259;-85
2023/03/17 09:39:12;;;;;;;5.73;3.23;;;6.20;94.80;;;;;;7892544;28;20208;-86
2023/03/17 09:43:06;;;;;;;8.60;3.70;;;6.40;94.70;;;;;;7892581;28;20192;-86
2023/03/17 09:47:46;;;;;;;5.93;3.57;;;6.50;93.50;;;;;;7890009;28;20200;-87
2023/03/17 09:51:34;;;;;;;5.90;3.50;;;6.60;92.50;;;;;;7833892;28;20532;-86
2023/03/17 09:55:29;;;;;;;6.20;3.43;;;6.70;92.30;;;;;;7807008;28;20210;-86
2023/03/17 09:59:28;;;;;;;5.67;3.47;;;6.80;92.50;;;;;;7804071;28;20706;-84
2023/03/17 10:03:15;;;;;;;5.10;2.97;;;7.00;92.70;;;;;;7826195;28;20213;-85
2023/03/17 10:07:03;;;;;;;7.03;3.03;;;7.10;91.10;;;;;;7807816;28;20190;-84
2023/03/17 10:11:02;;;;;;;6.50;3.63;;;7.10;90.80;;;;;;7820214;28;20667;-84
2023/03/17 10:15:01;;;;;;;5.73;3.40;;;7.30;91.40;;;;;;7826187;28;20206;-84
2023/03/17 10:18:55;;;;;;;6.20;3.80;;;7.30;90.10;;;;;;7814885;28;20717;-84
2023/03/17 10:22:47;;;;;;;6.80;4.00;;;7.40;90.90;;;;;;7824621;28;20217;-85
2023/03/17 10:26:39;;;;;;;5.67;3.67;;;7.50;90.50;;;;;;7887735;28;20185;-84
2023/03/17 10:30:26;;;;;;;6.70;3.70;;;7.50;90.50;;;;;;7879405;28;20184;-79
2023/03/17 10:34:28;;;;;;;8.60;3.73;;;7.60;90.60;;;;;;7885558;28;20200;-80
2023/03/17 10:38:18;;;;;;;5.43;3.13;;;7.70;90.60;;;;;;7896622;28;20623;-79
2023/03/17 10:42:18;;;;;;;7.97;4.60;;;7.80;90.50;;;;;;7884739;28;20259;-81
2023/03/17 10:46:13;;;;;;;6.37;4.00;;;7.90;90.50;;;;;;7885595;28;20212;-80
2023/03/17 10:50:16;;;;;;;6.67;3.80;;;8.00;90.90;;;;;;7880954;28;20218;-81
2023/03/17 10:54:09;;;;;;;8.63;4.20;;;8.00;91.00;;;;;;7886400;28;20215;-83
2023/03/17 10:58:18;;;;;;;6.83;3.60;;;8.20;91.50;;;;;;7891973;28;20217;-86
2023/03/17 11:02:17;;;;;;;7.73;4.50;;;8.20;90.40;;;;;;7903268;28;20267;-84
2023/03/17 11:06:07;;;;;;;7.87;4.70;;;8.40;92.30;;;;;;7898552;28;20207;-86
2023/03/17 11:09:57;;;;;;;9.97;4.47;;;8.40;91.00;;;;;;7902089;28;20188;-83
2023/03/17 11:13:43;;;;;;;7.53;4.33;;;8.50;90.90;;;;;;7891951;28;20742;-87
2023/03/17 11:17:42;;;;;;;6.70;3.93;;;8.50;90.50;;;;;;7886060;28;20205;-87
2023/03/17 11:21:58;;;;;;;6.30;3.60;;;8.60;89.90;;;;;;7891569;28;20173;-87
2023/03/17 11:25:48;;;;;;;9.00;3.90;;;8.60;87.60;;;;;;7821637;28;20207;-86
2023/03/17 11:29:47;;;;;;;6.47;3.90;;;8.60;88.70;;;;;;7837977;28;20193;-84
2023/03/17 11:34:12;;;;;;;7.90;4.30;;;8.70;89.40;;;;;;7811836;28;20209;-85
2023/03/17 11:38:27;;;;;;;11.03;4.60;;;8.80;88.50;;;;;;7821624;28;20285;-86
2023/03/17 11:42:21;;;;;;;8.03;4.30;;;8.80;88.00;;;;;;7821990;28;20485;-87
2023/03/17 11:46:14;;;;;;;7.43;4.27;;;8.90;89.40;;;;;;7821976;28;20252;-87
2023/03/17 11:50:38;;;;;;;7.27;4.00;;;9.00;88.20;;;;;;7862118;28;20186;-86
2023/03/17 11:54:41;;;;;;;7.33;4.13;;;9.00;88.70;;;;;;7836056;28;20235;-85
2023/03/17 11:58:31;;;;;;;6.37;4.10;;;9.10;89.20;;;;;;7828437;28;20206;-85
2023/03/17 12:02:24;;;;;;;5.83;3.83;;;9.20;87.00;;;;;;7877914;28;20701;-85
2023/03/17 12:06:32;;;;;;;8.40;4.57;;;9.30;86.20;;;;;;7898193;28;20695;-85
2023/03/17 12:10:40;;;;;;;7.27;4.80;;;9.30;86.50;;;;;;7891433;28;20267;-85
2023/03/17 12:14:29;;;;;;;7.03;4.57;;;9.40;87.60;;;;;;7901759;28;20245;-85
2023/03/17 12:18:29;;;;;;;9.07;5.20;;;9.40;86.50;;;;;;7892145;28;20205;-86
2023/03/17 12:22:29;;;;;;;10.53;4.73;;;9.40;87.70;;;;;;7900612;28;20255;-87
2023/03/17 12:26:17;;;;;;;9.37;5.07;;;9.40;86.90;;;;;;7900762;28;20727;-87
2023/03/17 12:30:16;;;;;;;11.57;5.37;;;9.40;86.50;;;;;;7889777;28;20241;-88
2023/03/17 12:34:27;;;;;;;7.87;5.00;;;9.40;88.00;;;;;;7896608;28;20250;-85
2023/03/17 12:38:17;;;;;;;10.87;4.93;;;9.40;87.20;;;;;;7885485;28;20277;-85
2023/03/17 12:42:24;;;;;;;10.67;4.87;;;9.60;89.00;;;;;;7875379;28;20176;-81
2023/03/17 12:46:27;;;;;;;11.43;4.93;;;9.70;87.30;;;;;;7896125;28;20201;-84
2023/03/17 12:50:22;;;;;;;10.73;6.00;;;9.80;87.40;;;;;;7899633;28;20264;-84
2023/03/17 12:54:31;;;;;;;10.70;5.83;;;9.80;87.40;;;;;;7890323;28;20193;-82
2023/03/17 12:58:23;;;;;;;9.50;5.80;;;9.80;86.80;;;;;;7886856;28;20189;-85
2023/03/17 13:02:33;;;;;;;7.93;5.23;;;9.90;86.60;;;;;;7885899;28;20173;-86
2023/03/17 13:06:23;;;;;;;11.40;5.93;;;9.80;84.50;;;;;;7882917;28;20200;-86
2023/03/17 13:10:12;;;;;;;8.70;5.73;;;9.70;87.00;;;;;;7891438;28;20530;-85
2023/03/17 13:14:28;;;;;;;9.83;5.73;;;9.80;86.40;;;;;;7883145;28;20226;-87
2023/03/17 13:18:26;;;;;;;8.87;5.30;;;9.80;86.60;;;;;;7885551;28;20692;-86
2023/03/17 13:22:12;;;;;;;11.50;5.60;;;9.80;84.70;;;;;;7895511;28;20172;-86
2023/03/17 13:25:59;;;;;;;12.87;6.23;;;9.80;84.00;;;;;;7891292;28;20207;-86
2023/03/17 13:29:46;;;;;;;9.77;6.00;;;9.70;84.90;;;;;;7887685;28;20178;-86
2023/03/17 13:33:31;;;;;;;12.10;6.40;;;9.80;87.10;;;;;;7887911;28;20194;-87
2023/03/17 13:37:46;;;;;;;9.00;5.80;;;9.80;85.10;;;;;;7882947;28;20292;-87
2023/03/17 13:41:55;;;;;;;11.63;6.20;;;9.80;85.00;;;;;;7894213;28;20261;-86
2023/03/17 13:45:43;;;;;;;9.83;6.17;;;9.80;86.60;;;;;;7882986;28;20204;-87
2023/03/17 13:49:31;;;;;;;10.17;5.93;;;9.90;85.70;;;;;;7903379;28;20203;-87
2023/03/17 13:53:16;;;;;;;9.10;5.63;;;10.00;85.40;;;;;;7893906;28;20208;-87
2023/03/17 13:57:20;;;;;;;9.20;6.20;;;10.10;85.10;;;;;;7895430;28;20739;-86
2023/03/17 14:01:12;;;;;;;11.17;5.90;;;10.10;86.10;;;;;;7878630;28;20220;-89
2023/03/17 14:05:01;;;;;;;13.07;6.20;;;10.20;85.20;;;;;;7882274;28;20196;-89
2023/03/17 14:08:51;;;;;;;10.63;6.27;;;10.30;82.80;;;;;;7886605;28;20185;-90
2023/03/17 14:13:20;;;;;;;14.80;6.27;;;10.30;84.30;;;;;;7894665;28;20180;-89
2023/03/17 14:17:21;;;;;;;10.97;6.60;;;10.40;82.00;;;;;;7822481;28;20710;-89
2023/03/17 14:21:28;;;;;;;11.57;6.70;;;10.40;81.60;;;;;;7818795;28;20198;-90
2023/03/17 14:25:26;;;;;;;10.73;6.07;;;10.40;82.20;;;;;;7823127;28;20200;-90
2023/03/17 14:29:15;;;;;;;11.17;6.27;;;10.40;82.40;;;;;;7837773;28;20277;-89
2023/03/17 14:33:05;;;;;;;9.07;6.20;;;10.40;82.50;;;;;;7816825;28;20229;-90
2023/03/17 14:36:51;;;;;;;15.40;6.87;;;10.50;81.60;;;;;;7832206;28;20251;-90
2023/03/17 14:40:36;;;;;;;12.13;7.00;;;10.50;83.60;;;;;;7824471;28;20268;-90
2023/03/17 14:44:22;;;;;;;12.07;6.17;;;10.50;83.10;;;;;;7821687;28;20194;-90
2023/03/17 14:48:13;;;;;;;11.40;6.40;;;10.50;82.00;;;;;;7825459;28;20386;-89
2023/03/17 14:51:59;;;;;;;11.93;6.80;;;10.50;81.30;;;;;;7848316;28;20542;-89
2023/03/17 14:55:45;;;;;;;14.17;6.43;;;10.50;80.90;;;;;;7874890;28;20211;-90
2023/03/17 14:59:39;;;;;;;15.80;7.00;;;10.40;81.40;;;;;;7878341;28;20240;-89
2023/03/17 15:03:29;;;;;;;10.13;6.57;;;10.40;80.90;;;;;;7892874;28;20296;-89
2023/03/17 15:07:39;;;;;;;11.37;6.73;;;10.40;81.90;;;;;;7901119;28;20219;-89
2023/03/17 15:11:34;;;;;;;10.83;6.80;;;10.40;81.70;;;;;;7900502;28;20191;-89
2023/03/17 15:15:28;;;;;;;10.63;6.63;;;10.50;82.10;;;;;;7889422;28;20245;-90
2023/03/17 15:19:39;;;;;;;10.47;6.93;;;10.50;81.40;;;;;;7896921;28;20208;-89
2023/03/17 15:23:28;;;;;;;12.30;6.97;;;10.50;81.80;;;;;;7887135;28;20200;-90
2023/03/17 15:27:16;;;;;;;10.07;7.33;;;10.40;82.30;;;;;;7892246;28;20209;-89
2023/03/17 15:31:11;;;;;;;11.37;6.90;;;10.30;83.00;;;;;;7897369;28;20185;-89
2023/03/17 15:34:57;;;;;;;12.07;7.40;;;10.40;82.60;;;;;;7887895;28;20611;-89
2023/03/17 15:38:43;;;;;;;11.53;7.47;;;10.30;83.10;;;;;;7890324;28;20213;-90
2023/03/17 15:42:34;;;;;;;15.67;7.67;;;10.20;83.40;;;;;;7890296;28;20177;-89
2023/03/17 15:46:26;;;;;;;12.50;8.40;;;10.20;83.80;;;;;;7894557;28;20207;-89
2023/03/17 15:50:14;;;;;;;14.63;7.90;;;10.20;83.50;;;;;;7920724;28;20196;-89
2023/03/17 15:54:00;;;;;;;13.03;7.07;;;10.10;83.80;;;;;;7871879;28;20202;-89
2023/03/17 15:57:46;;;;;;;14.07;7.43;;;10.10;84.60;;;;;;7872375;28;20208;-90
2023/03/17 16:01:31;;;;;;;13.30;7.83;;;10.10;84.50;;;;;;7885328;28;20188;-89
2023/03/17 16:05:20;;;;;;;14.63;8.40;;;10.00;84.20;;;;;;7898697;28;20193;-90
2023/03/17 16:09:16;;;;;;;13.20;7.40;;;10.00;83.20;;;;;;7889508;28;20207;-89
2023/03/17 16:13:02;;;;;;;14.27;7.77;;;10.00;83.10;;;;;;7891901;28;20204;-90
2023/03/17 16:16:47;;;;;;;13.10;8.23;;;10.00;85.00;;;;;;7893051;28;20188;-86
2023/03/17 16:20:40;;;;;;;12.07;7.47;;;10.30;84.70;;;;;;7911009;28;20195;-85
2023/03/17 16:24:27;;;;;;;12.00;7.40;;;10.60;83.40;;;;;;7892202;28;20206;-86
2023/03/17 16:28:25;;;;;;;9.63;7.07;;;10.80;82.60;;;;;;7895730;28;20178;-86
2023/03/17 16:32:12;;;;;;;11.83;7.40;;;11.00;83.00;;;;;;7900834;28;20182;-85
2023/03/17 16:35:59;;;;;;;11.23;7.50;;;11.10;82.00;;;;;;7903410;28;20213;-86
2023/03/17 16:39:45;;;;;;;16.50;7.47;;;11.10;82.50;;;;;;7901892;28;20204;-86
2023/03/17 16:43:36;;;;;;;12.77;7.57;;;11.10;82.20;;;;;;7902556;28;20196;-86
2023/03/17 16:47:22;;;;;;;12.93;8.10;;;11.10;82.20;;;;;;7902683;28;20169;-86
2023/03/17 16:51:07;;;;;;;11.97;7.30;;;11.00;82.00;;;;;;7902570;28;20703;-85
2023/03/17 16:54:53;;;;;;;11.47;7.17;;;11.00;82.30;;;;;;7886667;28;20685;-87
2023/03/17 16:58:41;;;;;;;12.80;7.93;;;10.90;82.50;;;;;;7890721;28;20250;-93
2023/03/17 17:02:27;;;;;;;13.70;7.97;;;10.90;81.80;;;;;;7894425;28;20173;-87
2023/03/17 17:06:13;;;;;;;10.77;7.37;;;10.80;82.00;;;;;;7884427;28;20209;-86
2023/03/17 17:09:59;;;;;;;12.00;7.20;;;10.60;81.80;;;;;;7897250;28;20180;-86
2023/03/17 17:13:46;;;;;;;13.17;7.20;;;10.60;82.80;;;;;;7895977;28;20229;-87
2023/03/17 17:17:34;;;;;;;15.53;7.10;;;10.50;82.70;;;;;;7882266;28;20657;-88
2023/03/17 17:21:20;;;;;;;12.77;7.37;;;10.50;82.50;;;;;;7875438;28;20212;-87
2023/03/17 17:25:08;;;;;;;14.40;7.47;;;10.40;82.80;;;;;;7870067;28;20197;-88
2023/03/17 17:28:54;;;;;;;13.17;6.83;;;10.40;82.70;;;;;;7872807;28;20210;-88
2023/03/17 17:32:40;;;;;;;10.97;6.33;;;10.40;83.70;;;;;;7900546;28;20183;-87
2023/03/17 17:36:26;;;;;;;10.73;6.10;;;10.40;83.90;;;;;;7887816;28;20196;-87
2023/03/17 17:40:15;;;;;;;11.50;6.27;;;10.40;84.00;;;;;;7892494;28;20204;-88
2023/03/17 17:44:01;;;;;;;14.83;6.90;;;10.40;83.90;;;;;;7906638;28;20192;-89
2023/03/17 17:47:46;;;;;;;10.27;6.23;;;10.30;83.80;;;;;;7925521;28;20172;-87
2023/03/17 17:51:32;;;;;;;14.83;6.77;;;10.30;84.00;;;;;;7900558;28;20177;-87
2023/03/17 17:55:18;;;;;;;12.07;6.23;;;10.20;84.10;;;;;;7899552;28;20704;-87
2023/03/17 17:59:04;;;;;;;10.17;6.60;;;10.20;84.50;;;;;;7880039;28;20744;-87
2023/03/17 18:02:50;;;;;;;12.47;6.53;;;10.10;84.70;;;;;;7889378;28;20581;-87
2023/03/17 18:06:35;;;;;;;11.47;6.73;;;10.10;84.50;;;;;;7902185;28;20574;-88
2023/03/17 18:10:24;;;;;;;11.93;6.67;;;10.10;84.90;;;;;;7907059;28;20183;-87
2023/03/17 18:14:10;;;;;;;14.43;7.13;;;10.00;84.80;;;;;;7899109;28;20245;-87
2023/03/17 18:17:56;;;;;;;13.60;6.73;;;9.90;85.10;;;;;;7889511;28;20288;-87
2023/03/17 18:21:43;;;;;;;11.90;6.60;;;9.90;85.20;;;;;;7876277;28;20188;-88
2023/03/17 18:25:29;;;;;;;13.23;6.37;;;9.90;85.40;;;;;;7884502;28;20232;-87
2023/03/17 18:29:14;;;;;;;11.20;6.07;;;9.80;85.40;;;;;;7867603;28;20181;-87
2023/03/17 18:33:09;;;;;;;17.20;6.03;;;9.70;85.50;;;;;;7871352;28;20188;-87
2023/03/17 18:36:58;;;;;;;12.93;6.20;;;9.70;85.80;;;;;;7900028;28;20199;-88
2023/03/17 18:40:44;;;;;;;12.00;6.20;;;9.60;85.60;;;;;;7899053;28;20172;-87
2023/03/17 18:44:30;;;;;;;14.37;6.50;;;9.50;85.80;;;;;;7887771;28;20204;-87
2023/03/17 18:48:16;;;;;;;11.70;6.00;;;9.50;85.70;;;;;;7898948;28;20230;-87
2023/03/17 18:52:02;;;;;;;13.80;5.70;;;9.40;85.60;;;;;;7900398;28;20252;-87
2023/03/17 18:55:48;;;;;;;11.77;5.37;;;9.30;84.90;;;;;;7874280;28;20201;-87
2023/03/17 18:59:33;;;;;;;11.87;5.87;;;9.30;85.40;;;;;;7867449;28;20700;-87
2023/03/17 19:03:19;;;;;;;9.07;5.27;;;9.20;86.00;;;;;;7889815;28;20200;-87
2023/03/17 19:07:05;;;;;;;10.33;5.10;;;9.10;85.60;;;;;;7882421;28;20192;-87
2023/03/17 19:10:50;;;;;;;9.40;5.90;;;9.00;85.80;;;;;;7873838;28;20173;-88
2023/03/17 19:14:37;;;;;;;8.73;5.20;;;9.10;85.20;;;;;;7875656;28;20204;-87
2023/03/17 19:18:23;;;;;;;10.67;4.90;;;9.00;85.10;;;;;;7897394;28;20196;-86
2023/03/17 19:22:09;;;;;;;9.27;5.23;;;9.00;85.30;;;;;;7905920;28;20322;-87
2023/03/17 19:25:55;;;;;;;9.13;4.93;;;8.90;85.10;;;;;;7897603;28;20196;-87
2023/03/17 19:29:41;;;;;;;9.17;4.70;;;8.90;85.10;;;;;;7900170;28;20237;-87
2023/03/17 19:33:27;;;;;;;11.93;5.40;;;8.90;85.00;;;;;;7906130;28;20231;-87
2023/03/17 19:37:13;;;;;;;8.77;4.90;;;8.80;85.10;;;;;;7890458;28;20242;-88
2023/03/17 19:40:59;;;;;;;10.53;5.03;;;8.80;85.10;;;;;;7923288;28;20173;-86
2023/03/17 19:44:45;;;;;;;8.03;4.80;;;8.70;84.90;;;;;;7908545;28;20199;-87
2023/03/17 19:48:32;;;;;;;11.00;5.50;;;8.70;84.80;;;;;;7893963;28;20235;-86
2023/03/17 19:52:18;;;;;;;8.03;4.87;;;8.70;84.70;;;;;;7871336;28;20173;-87
2023/03/17 19:56:04;;;;;;;9.27;5.00;;;8.60;84.70;;;;;;7872613;28;20194;-87
2023/03/17 19:59:50;;;;;;;8.13;4.57;;;8.60;84.70;;;;;;7884816;28;20207;-86
2023/03/17 20:03:41;;;;;;;8.10;4.63;;;8.50;84.60;;;;;;7903242;28;20204;-91